.
WxDataArchive / Data Records for 2015-02-06
2015-02-05 February 2015 2015-02-07

Data Records for Friday, 06 February 2015

Time	Temp	Chill	HIndex	Humid	Dewpt	 Wind 	HiWind	WindDir	Rain 	Barom
-----	----	-----	------	-----	-----	------	------	-------	-----	-----
00:00	12.3	12.3	12.3	74	5.6	0	2	270	0.00	30.340 
00:05	12.3	12.3	12.3	74	5.6	0	0	---	0.00	30.340 
00:10	12.4	12.4	12.4	74	5.7	0	2	270	0.00	30.340 
00:15	12.4	12.4	12.4	73	5.4	0	3	270	0.00	30.333 
00:20	12.4	12.4	12.4	73	5.4	1	4	270	0.00	30.333 
00:25	12.4	12.4	12.4	73	5.4	1	3	270	0.00	30.333 
00:30	12.4	12.4	12.4	73	5.4	0	4	270	0.00	30.324 
00:35	12.4	12.4	12.4	72	5.1	0	3	270	0.00	30.324 
00:40	12.4	12.4	12.4	72	5.1	0	3	270	0.00	30.324 
00:45	12.3	12.3	12.3	72	5.0	0	4	270	0.00	30.313 
00:50	12.3	12.3	12.3	72	5.0	0	2	270	0.00	30.313 
00:55	12.1	12.1	12.1	72	4.8	0	2	270	0.00	30.313 
01:00	11.9	11.9	11.9	72	4.6	0	2	270	0.00	30.312 
01:05	11.9	11.9	11.9	71	4.3	0	3	270	0.00	30.312 
01:10	11.7	11.7	11.7	71	4.1	0	3	248	0.00	30.312 
01:15	11.7	11.7	11.7	71	4.1	1	3	270	0.00	30.307 
01:20	11.6	11.6	11.6	70	3.7	0	3	270	0.00	30.307 
01:25	11.4	11.4	11.4	70	3.5	0	2	270	0.00	30.307 
01:30	11.4	11.4	11.4	70	3.5	1	3	270	0.00	30.307 
01:35	11.2	11.2	11.2	70	3.4	1	3	270	0.00	30.307 
01:40	11.1	11.1	11.1	70	3.3	1	2	270	0.00	30.307 
01:45	10.9	10.9	10.9	71	3.4	0	1	270	0.00	30.309 
01:50	10.9	10.9	10.9	71	3.4	0	3	270	0.00	30.309 
01:55	10.7	10.7	10.7	71	3.2	0	2	270	0.00	30.309 
02:00	10.5	10.5	10.5	71	3.0	0	1	270	0.00	30.308 
02:05	10.4	10.4	10.4	71	2.9	0	1	270	0.00	30.308 
02:10	10.4	10.4	10.4	71	2.9	0	1	270	0.00	30.308 
02:15	10.2	10.2	10.2	71	2.7	0	1	270	0.00	30.309 
02:20	10.0	10.0	10.0	71	2.5	0	1	270	0.00	30.309 
02:25	9.9	9.9	9.9	71	2.4	0	1	270	0.00	30.309 
02:30	9.5	9.5	9.5	71	2.0	0	0	---	0.00	30.312 
02:35	9.5	9.5	9.5	71	2.0	0	1	270	0.00	30.312 
02:40	9.3	9.3	9.3	71	1.8	0	1	270	0.00	30.312 
02:45	9.2	9.2	9.2	71	1.7	0	0	---	0.00	30.312 
02:50	9.3	9.3	9.3	72	2.1	0	1	270	0.00	30.312 
02:55	9.5	9.5	9.5	72	2.3	0	0	---	0.00	30.312 
03:00	9.7	9.7	9.7	73	2.8	0	1	270	0.00	30.302 
03:05	10.0	10.0	10.0	73	3.1	0	1	270	0.00	30.302 
03:10	10.4	10.4	10.4	73	3.5	0	0	---	0.00	30.302 
03:15	10.5	10.5	10.5	73	3.6	0	1	270	0.00	30.296 
03:20	10.9	10.9	10.9	72	3.7	0	0	---	0.00	30.296 
03:25	11.1	11.1	11.1	73	4.2	0	0	---	0.00	30.296 
03:30	11.2	11.2	11.2	72	4.0	0	1	270	0.00	30.294 
03:35	11.4	11.4	11.4	72	4.2	0	1	270	0.00	30.294 
03:40	11.6	11.6	11.6	72	4.4	0	0	---	0.00	30.294 
03:45	11.7	11.7	11.7	71	4.1	0	1	270	0.00	30.284 
03:50	11.9	11.9	11.9	71	4.3	0	1	270	0.00	30.284 
03:55	12.1	12.1	12.1	71	4.5	0	1	270	0.00	30.284 
04:00	12.3	12.3	12.3	71	4.7	0	2	270	0.00	30.288 
04:05	12.4	12.4	12.4	71	4.8	0	1	270	0.00	30.288 
04:10	12.6	12.6	12.6	70	4.7	0	2	270	0.00	30.288 
04:15	12.6	12.6	12.6	70	4.7	0	1	270	0.00	30.290 
04:20	12.8	12.8	12.8	70	4.9	0	1	270	0.00	30.290 
04:25	12.9	12.9	12.9	70	5.0	0	2	270	0.00	30.290 
04:30	12.9	12.9	12.9	70	5.0	0	1	270	0.00	30.279 
04:35	13.1	13.1	13.1	70	5.2	0	2	270	0.00	30.279 
04:40	13.3	13.3	13.3	70	5.4	0	2	270	0.00	30.279 
04:45	13.6	13.6	13.6	70	5.7	0	2	270	0.00	30.276 
04:50	14.0	14.0	14.0	69	5.7	1	3	248	0.00	30.276 
04:55	14.1	14.1	14.1	69	5.8	0	3	248	0.00	30.276 
05:00	14.3	14.3	14.3	69	6.0	0	2	248	0.00	30.267 
05:05	14.4	14.4	14.4	69	6.1	0	2	248	0.00	30.267 
05:10	14.8	14.8	14.8	69	6.5	0	2	248	0.00	30.267 
05:15	14.9	14.9	14.9	69	6.6	0	3	270	0.00	30.264 
05:20	15.2	15.2	15.2	68	6.6	1	4	248	0.00	30.264 
05:25	15.4	15.4	15.4	68	6.8	1	4	248	0.00	30.264 
05:30	15.6	15.6	15.6	68	7.0	1	3	270	0.00	30.262 
05:35	15.6	15.6	15.6	68	7.0	0	3	270	0.00	30.262 
05:40	15.7	15.7	15.7	68	7.0	0	2	270	0.00	30.262 
05:45	15.7	15.7	15.7	68	7.0	0	2	270	0.00	30.262 
05:50	15.9	15.9	15.9	68	7.2	0	2	270	0.00	30.262 
05:55	15.9	15.9	15.9	68	7.2	1	3	270	0.00	30.262 
06:00	16.1	16.1	16.1	68	7.4	0	2	248	0.00	30.259 
06:05	16.1	16.1	16.1	68	7.4	0	3	248	0.00	30.259 
06:10	16.1	16.1	16.1	68	7.4	0	3	248	0.00	30.259 
06:15	16.1	16.1	16.1	68	7.4	1	4	248	0.00	30.263 
06:20	16.1	16.1	16.1	68	7.4	0	2	248	0.00	30.263 
06:25	16.1	16.1	16.1	69	7.8	0	2	248	0.00	30.263 
06:30	16.1	16.1	16.1	69	7.8	1	3	248	0.00	30.265 
06:35	16.1	16.1	16.1	69	7.8	0	3	270	0.00	30.265 
06:40	16.1	16.1	16.1	69	7.8	0	3	248	0.00	30.265 
06:45	16.1	16.1	16.1	69	7.8	0	2	248	0.00	30.265 
06:50	16.1	16.1	16.1	69	7.8	0	2	248	0.00	30.265 
06:55	16.1	16.1	16.1	69	7.8	0	2	248	0.00	30.265 
07:00	16.1	16.1	16.1	69	7.8	0	2	248	0.00	30.267 
07:05	16.2	16.2	16.2	69	7.8	0	3	248	0.00	30.267 
07:10	16.2	16.2	16.2	69	7.8	1	2	248	0.00	30.267 
07:15	16.2	16.2	16.2	69	7.8	0	2	248	0.00	30.260 
07:20	16.2	16.2	16.2	69	7.8	0	2	270	0.00	30.260 
07:25	16.2	16.2	16.2	69	7.8	0	3	270	0.00	30.260 
07:30	16.4	16.4	16.4	70	8.4	1	3	248	0.00	30.263 
07:35	16.4	16.4	16.4	70	8.4	0	3	248	0.00	30.263 
07:40	16.4	16.4	16.4	70	8.4	0	2	248	0.00	30.263 
07:45	16.5	16.5	16.5	70	8.5	0	2	248	0.00	30.263 
07:50	16.5	16.5	16.5	70	8.5	0	3	248	0.00	30.263 
07:55	16.9	16.9	16.9	70	8.8	1	4	248	0.00	30.263 
08:00	17.0	17.0	17.0	70	8.9	0	3	248	0.00	30.257 
08:05	17.3	17.3	17.3	70	9.2	1	2	248	0.00	30.257 
08:10	17.5	17.5	17.5	70	9.4	0	3	270	0.00	30.257 
08:15	17.8	17.8	17.8	70	9.7	0	3	270	0.00	30.249 
08:20	18.0	18.0	18.0	69	9.6	1	5	270	0.00	30.249 
08:25	18.3	18.3	18.3	69	9.9	0	2	248	0.00	30.249 
08:30	18.6	18.6	18.6	69	10.2	0	3	248	0.00	30.248 
08:35	18.8	18.8	18.8	68	10.0	1	3	248	0.00	30.248 
08:40	19.1	19.1	19.1	68	10.3	1	4	248	0.00	30.248 
08:45	19.4	19.4	19.4	67	10.3	0	2	248	0.00	30.248 
08:50	19.5	19.5	19.5	67	10.4	0	2	248	0.00	30.248 
08:55	19.7	19.7	19.7	66	10.2	0	4	248	0.00	30.248 
09:00	20.0	20.0	20.0	66	10.5	0	2	248	0.00	30.259 
09:05	20.2	20.2	20.2	66	10.7	1	4	248	0.00	30.259 
09:10	20.5	20.5	20.5	66	11.0	0	2	248	0.00	30.259 
09:15	20.8	20.8	20.8	65	10.9	1	3	248	0.00	30.251 
09:20	21.1	21.1	21.1	65	11.2	1	4	270	0.00	30.251 
09:25	21.3	21.3	21.3	64	11.0	1	3	270	0.00	30.251 
09:30	21.4	21.4	21.4	64	11.1	1	3	270	0.00	30.254 
09:35	21.8	21.8	21.8	63	11.2	1	6	248	0.00	30.254 
09:40	21.9	21.9	21.9	63	11.3	1	6	270	0.00	30.254 
09:45	22.2	22.2	22.2	63	11.6	1	3	270	0.00	30.247 
09:50	22.4	22.4	22.4	62	11.4	1	4	225	0.00	30.247 
09:55	22.5	22.5	22.5	62	11.5	1	5	248	0.00	30.247 
10:00	22.7	22.7	22.7	62	11.7	0	4	248	0.00	30.242 
10:05	22.7	22.7	22.7	62	11.7	1	5	270	0.00	30.242 
10:10	22.7	22.7	22.7	62	11.7	1	4	248	0.00	30.242 
10:15	22.7	22.7	22.7	62	11.7	1	5	292	0.00	30.243 
10:20	22.9	22.9	22.9	63	12.2	1	4	292	0.00	30.243 
10:25	23.0	23.0	23.0	62	11.9	1	3	270	0.00	30.243 
10:30	23.2	23.2	23.2	62	12.1	1	5	225	0.00	30.240 
10:35	23.3	23.3	23.3	61	11.9	1	4	248	0.00	30.240 
10:40	23.6	23.6	23.6	61	12.2	1	4	248	0.00	30.240 
10:45	23.6	23.6	23.6	61	12.2	1	4	248	0.00	30.243 
10:50	23.9	23.9	23.9	61	12.4	1	4	270	0.00	30.243 
10:55	24.1	24.1	24.1	61	12.6	1	5	270	0.00	30.243 
11:00	24.2	24.2	24.2	60	12.3	1	3	270	0.00	30.239 
11:05	24.5	24.5	24.5	60	12.6	1	3	270	0.00	30.239 
11:10	24.8	24.8	24.8	60	12.9	1	4	248	0.00	30.239 
11:15	25.1	25.1	25.1	59	12.8	2	4	248	0.00	30.239 
11:20	25.4	25.4	25.4	58	12.7	1	3	248	0.00	30.239 
11:25	25.8	25.8	25.8	58	13.1	1	3	248	0.00	30.239 
11:30	26.1	26.1	26.1	58	13.4	2	4	248	0.00	30.234 
11:35	26.9	26.9	26.9	58	14.1	0	3	248	0.00	30.234 
11:40	27.3	27.3	27.3	56	13.7	1	4	248	0.00	30.234 
11:45	27.5	27.5	27.5	55	13.5	1	4	248	0.00	30.234 
11:50	27.6	27.6	27.6	56	14.0	1	3	248	0.00	30.234 
11:55	27.8	27.8	27.8	55	13.8	1	4	248	0.00	30.234 
12:00	27.8	27.8	27.8	55	13.8	1	4	270	0.00	30.224 
12:05	27.8	27.8	27.8	54	13.3	1	3	270	0.00	30.224 
12:10	27.9	27.9	27.9	55	13.9	1	3	270	0.00	30.224 
12:15	27.6	27.6	27.6	54	13.2	2	5	270	0.00	30.229 
12:20	27.3	27.3	27.3	54	12.9	2	4	270	0.00	30.229 
12:25	27.3	27.3	27.3	56	13.7	1	3	270	0.00	30.229 
12:30	27.3	27.3	27.3	55	13.3	2	4	270	0.00	30.226 
12:35	27.2	27.2	27.2	56	13.6	2	3	270	0.00	30.226 
12:40	27.0	27.0	27.0	55	13.0	2	4	270	0.00	30.226 
12:45	27.0	27.0	27.0	55	13.0	2	5	270	0.00	30.223 
12:50	27.3	27.3	27.3	58	14.5	1	4	270	0.00	30.223 
12:55	27.6	27.6	27.6	56	14.0	1	3	270	0.00	30.223 
13:00	27.6	27.6	27.6	56	14.0	1	3	270	0.00	30.216 
13:05	27.6	27.6	27.6	57	14.4	1	3	270	0.00	30.216 
13:10	28.2	28.2	28.2	57	14.9	0	2	292	0.00	30.216 
13:15	28.4	28.4	28.4	55	14.3	2	3	292	0.00	30.210 
13:20	28.4	28.4	28.4	55	14.3	2	5	248	0.00	30.210 
13:25	28.4	28.4	28.4	55	14.3	1	3	248	0.00	30.210 
13:30	28.7	28.7	28.7	57	15.4	1	2	248	0.00	30.209 
13:35	28.5	28.5	28.5	54	14.0	2	4	248	0.00	30.209 
13:40	28.5	28.5	28.5	55	14.4	1	4	248	0.00	30.209 
13:45	28.7	28.7	28.7	54	14.2	1	4	270	0.00	30.209 
13:50	28.7	28.7	28.7	54	14.2	2	4	270	0.00	30.209 
13:55	28.8	28.8	28.8	55	14.7	1	3	248	0.00	30.209 
14:00	28.8	28.8	28.8	55	14.7	1	3	248	0.00	30.200 
14:05	29.3	29.3	29.3	55	15.2	1	4	248	0.00	30.200 
14:10	29.5	29.5	29.5	54	14.9	1	4	270	0.00	30.200 
14:15	29.7	29.7	29.7	53	14.7	2	5	248	0.00	30.206 
14:20	29.5	29.5	29.5	54	14.9	1	3	248	0.00	30.206 
14:25	29.4	29.4	29.4	53	14.4	2	5	270	0.00	30.206 
14:30	29.4	29.4	29.4	54	14.8	1	4	270	0.00	30.195 
14:35	29.8	29.8	29.8	55	15.6	1	3	270	0.00	30.195 
14:40	30.0	30.0	30.0	53	15.0	1	3	270	0.00	30.195 
14:45	30.0	30.0	30.0	54	15.4	1	2	270	0.00	30.185 
14:50	30.0	30.0	30.0	54	15.4	1	2	270	0.00	30.185 
14:55	30.0	30.0	30.0	53	15.0	1	2	270	0.00	30.185 
15:00	30.1	30.1	30.1	54	15.5	1	3	270	0.00	30.185 
15:05	30.1	30.1	30.1	54	15.5	0	2	270	0.00	30.185 
15:10	30.3	30.3	30.3	55	16.1	0	1	270	0.00	30.185 
15:15	30.4	30.4	30.4	54	15.8	0	2	270	0.00	30.182 
15:20	30.3	30.3	30.3	54	15.7	0	2	270	0.00	30.182 
15:25	30.1	30.1	30.1	54	15.5	1	2	270	0.00	30.182 
15:30	30.1	30.1	30.1	55	15.9	0	2	270	0.00	30.183 
15:35	30.1	30.1	30.1	55	15.9	0	2	270	0.00	30.183 
15:40	30.3	30.3	30.3	56	16.5	0	4	270	0.00	30.183 
15:45	30.6	30.6	30.6	57	17.2	0	2	270	0.00	30.180 
15:50	30.9	30.9	30.9	55	16.7	0	2	270	0.00	30.180 
15:55	31.0	31.0	31.0	55	16.8	0	1	270	0.01	30.180 
16:00	31.2	31.2	31.2	55	16.9	0	2	270	0.00	30.175 
16:05	31.3	31.3	31.3	55	17.0	0	2	270	0.00	30.175 
16:10	31.2	31.2	31.2	54	16.5	0	1	270	0.00	30.175 
16:15	31.0	31.0	31.0	56	17.2	0	1	270	0.00	30.174 
16:20	31.0	31.0	31.0	56	17.2	0	1	270	0.00	30.174 
16:25	31.0	31.0	31.0	57	17.6	0	1	270	0.00	30.174 
16:30	30.9	30.9	30.9	57	17.5	0	1	270	0.00	30.169 
16:35	30.6	30.6	30.6	57	17.2	0	1	270	0.00	30.169 
16:40	30.1	30.1	30.1	58	17.1	0	1	270	0.00	30.169 
16:45	30.1	30.1	30.1	59	17.5	0	2	270	0.00	30.168 
16:50	30.0	30.0	30.0	59	17.4	0	2	270	0.00	30.168 
16:55	29.8	29.8	29.8	59	17.2	0	1	270	0.00	30.168 
17:00	29.7	29.7	29.7	59	17.1	0	4	135	0.00	30.162 
17:05	29.4	29.4	29.4	59	16.9	1	5	135	0.00	30.162 
17:10	29.4	29.4	29.4	60	17.3	0	1	135	0.00	30.162 
17:15	29.3	29.3	29.3	60	17.2	0	1	135	0.00	30.167 
17:20	29.3	29.3	29.3	60	17.2	0	2	202	0.00	30.167 
17:25	29.1	29.1	29.1	61	17.4	0	1	202	0.00	30.167 
17:30	29.0	29.0	29.0	61	17.3	0	1	202	0.00	30.158 
17:35	29.0	29.0	29.0	62	17.6	0	1	202	0.00	30.158 
17:40	28.8	28.8	28.8	62	17.4	0	2	202	0.00	30.158 
17:45	28.7	28.7	28.7	62	17.4	0	1	202	0.00	30.153 
17:50	28.5	28.5	28.5	62	17.2	0	3	112	0.00	30.153 
17:55	28.4	28.4	28.4	63	17.4	0	0	---	0.00	30.153 
18:00	28.2	28.2	28.2	64	17.6	0	1	112	0.00	30.152 
18:05	28.2	28.2	28.2	64	17.6	0	1	112	0.00	30.152 
18:10	28.1	28.1	28.1	65	17.9	0	2	135	0.00	30.152 
18:15	28.1	28.1	28.1	65	17.9	0	1	135	0.00	30.150 
18:20	28.1	28.1	28.1	65	17.9	0	1	135	0.00	30.150 
18:25	27.9	27.9	27.9	65	17.7	0	2	135	0.00	30.150 
18:30	27.9	27.9	27.9	65	17.7	0	1	135	0.00	30.145 
18:35	27.8	27.8	27.8	65	17.6	0	1	135	0.00	30.145 
18:40	27.8	27.8	27.8	65	17.6	0	1	135	0.00	30.145 
18:45	27.6	27.6	27.6	65	17.4	0	1	135	0.00	30.149 
18:50	27.6	27.6	27.6	66	17.8	0	0	---	0.00	30.149 
18:55	27.6	27.6	27.6	66	17.8	0	1	135	0.00	30.149 
19:00	27.6	27.6	27.6	66	17.8	0	1	135	0.00	30.141 
19:05	27.8	27.8	27.8	65	17.6	0	2	135	0.00	30.141 
19:10	27.8	27.8	27.8	66	17.9	0	1	135	0.00	30.141 
19:15	27.8	27.8	27.8	66	17.9	0	1	135	0.00	30.138 
19:20	27.8	27.8	27.8	66	17.9	0	1	135	0.00	30.138 
19:25	27.8	27.8	27.8	66	17.9	0	1	135	0.00	30.138 
19:30	27.8	27.8	27.8	66	17.9	0	0	---	0.00	30.144 
19:35	27.8	27.8	27.8	66	17.9	0	1	135	0.00	30.144 
19:40	27.6	27.6	27.6	66	17.8	0	0	---	0.00	30.144 
19:45	27.6	27.6	27.6	66	17.8	0	1	135	0.00	30.138 
19:50	27.6	27.6	27.6	67	18.1	0	0	---	0.00	30.138 
19:55	27.6	27.6	27.6	67	18.1	0	0	---	0.00	30.138 
20:00	27.6	27.6	27.6	67	18.1	0	0	---	0.00	30.150 
20:05	27.5	27.5	27.5	68	18.3	0	0	---	0.00	30.150 
20:10	27.5	27.5	27.5	68	18.3	0	0	---	0.00	30.150 
20:15	27.5	27.5	27.5	69	18.7	0	1	135	0.00	30.146 
20:20	27.6	27.6	27.6	68	18.4	0	1	135	0.00	30.146 
20:25	27.8	27.8	27.8	68	18.6	0	1	135	0.00	30.146 
20:30	27.9	27.9	27.9	68	18.7	0	2	135	0.00	30.138 
20:35	28.1	28.1	28.1	69	19.3	0	1	135	0.00	30.138 
20:40	28.2	28.2	28.2	69	19.4	0	0	---	0.00	30.138 
20:45	28.2	28.2	28.2	69	19.4	0	1	135	0.00	30.144 
20:50	28.2	28.2	28.2	69	19.4	0	0	---	0.00	30.144 
20:55	28.2	28.2	28.2	70	19.7	0	1	135	0.00	30.144 
21:00	28.4	28.4	28.4	70	19.9	0	1	135	0.00	30.140 
21:05	28.4	28.4	28.4	71	20.2	0	1	135	0.00	30.140 
21:10	28.4	28.4	28.4	71	20.2	0	1	135	0.00	30.140 
21:15	28.4	28.4	28.4	71	20.2	0	1	135	0.00	30.143 
21:20	28.4	28.4	28.4	71	20.2	0	1	135	0.00	30.143 
21:25	28.4	28.4	28.4	71	20.2	0	0	---	0.00	30.143 
21:30	28.4	28.4	28.4	71	20.2	0	1	135	0.00	30.149 
21:35	28.4	28.4	28.4	72	20.5	0	0	---	0.00	30.149 
21:40	28.4	28.4	28.4	72	20.5	0	1	135	0.00	30.149 
21:45	28.4	28.4	28.4	72	20.5	0	1	135	0.00	30.148 
21:50	28.4	28.4	28.4	73	20.9	0	0	---	0.00	30.148 
21:55	28.4	28.4	28.4	73	20.9	0	0	---	0.00	30.148 
22:00	28.4	28.4	28.4	73	20.9	0	0	---	0.00	30.148 
22:05	28.4	28.4	28.4	73	20.9	0	0	---	0.00	30.148 
22:10	28.4	28.4	28.4	73	20.9	0	0	---	0.00	30.148 
22:15	28.4	28.4	28.4	73	20.9	0	0	---	0.00	30.147 
22:20	28.4	28.4	28.4	73	20.9	0	0	---	0.00	30.147 
22:25	28.2	28.2	28.2	73	20.7	0	1	135	0.00	30.147 
22:30	28.1	28.1	28.1	73	20.6	0	1	135	0.00	30.131 
22:35	27.8	27.8	27.8	73	20.3	0	1	135	0.00	30.131 
22:40	27.5	27.5	27.5	73	20.0	0	1	135	0.00	30.131 
22:45	27.2	27.2	27.2	73	19.7	0	1	135	0.00	30.120 
22:50	26.9	26.9	26.9	73	19.4	0	0	---	0.00	30.120 
22:55	26.6	26.6	26.6	74	19.5	0	0	---	0.00	30.120 
23:00	26.3	26.3	26.3	74	19.2	0	1	135	0.00	30.117 
23:05	26.1	26.1	26.1	74	19.0	0	2	135	0.00	30.117 
23:10	26.0	26.0	26.0	75	19.2	0	1	135	0.00	30.117 
23:15	26.0	26.0	26.0	75	19.2	0	1	135	0.00	30.108 
23:20	26.0	26.0	26.0	75	19.2	0	1	135	0.00	30.108 
23:25	25.8	25.8	25.8	75	19.0	0	1	135	0.00	30.108 
23:30	25.8	25.8	25.8	75	19.0	0	0	---	0.00	30.096 
23:35	25.7	25.7	25.7	75	18.9	0	2	135	0.00	30.096 
23:40	25.8	25.8	25.8	75	19.0	0	1	135	0.00	30.096 
23:45	25.7	25.7	25.7	74	18.6	0	1	135	0.00	30.083 
23:50	25.7	25.7	25.7	74	18.6	0	1	135	0.00	30.083 
23:55	25.7	25.7	25.7	74	18.6	0	1	135	0.00	30.083 

CoCoRaHS
IN-AL-39
A2 Web Hosting
Creative Commons License
GoDaddy
search engine by freefind advanced

loaded 2018-11-21 00:49:11 • last modified 2010-11-18 10:43:29
Privacy PolicyDisclaimer
• wx.awcolley.com is powered by PmWiki v.2002016 •
• all content (unless otherwise noted) © 2018 A W Colley